Time;durP1;ratioP1;P1;durP2;ratioP2;P2;SDS_P1;SDS_P2;PMS_P1;PMS_P2;Temp;Humidity;BMP_temperature;BMP_pressure;BME280_temperature;BME280_humidity;BME280_pressure;Samples;Min_cycle;Max_cycle;Signal;HPM_P1;HPM_P2
2022/04/12 00:00:40;;;;;;;2.85;1.40;;;20.40;50.50;;;;;;5012314;28;20088;-68
2022/04/12 00:03:06;;;;;;;2.17;1.10;;;20.40;50.50;;;;;;5013080;28;20050;-68
2022/04/12 00:05:35;;;;;;;2.58;1.13;;;20.40;50.50;;;;;;5012932;28;20074;-68
2022/04/12 00:08:01;;;;;;;3.63;1.50;;;20.40;50.50;;;;;;5012183;28;20054;-68
2022/04/12 00:10:27;;;;;;;2.45;1.50;;;20.30;50.40;;;;;;5013212;28;20117;-68
2022/04/12 00:12:53;;;;;;;3.47;1.50;;;20.30;50.40;;;;;;5012721;28;20049;-68
2022/04/12 00:15:19;;;;;;;3.70;1.38;;;20.30;50.40;;;;;;5012118;28;20045;-68
2022/04/12 00:20:28;;;;;;;3.20;1.42;;;20.30;50.40;;;;;;5012863;28;20050;-68
2022/04/12 00:22:54;;;;;;;2.92;1.27;;;20.30;50.40;;;;;;5011836;28;20046;-68
2022/04/12 00:25:22;;;;;;;2.42;1.05;;;20.30;50.40;;;;;;5012922;28;20046;-68
2022/04/12 00:27:48;;;;;;;3.60;1.27;;;20.30;50.40;;;;;;5011577;28;20534;-68
2022/04/12 00:30:13;;;;;;;2.97;1.23;;;20.30;50.40;;;;;;5012607;28;20046;-68
2022/04/12 00:32:39;;;;;;;2.40;1.08;;;20.30;50.40;;;;;;5012179;28;20085;-68
2022/04/12 00:35:05;;;;;;;1.83;1.23;;;20.30;50.30;;;;;;5012114;28;20050;-68
2022/04/12 00:37:31;;;;;;;2.70;1.20;;;20.30;50.30;;;;;;5012674;28;20092;-68
2022/04/12 00:39:56;;;;;;;2.47;1.33;;;20.20;50.30;;;;;;5012398;28;20053;-67
2022/04/12 00:42:22;;;;;;;3.22;1.38;;;20.30;50.30;;;;;;5012058;28;20038;-68
2022/04/12 00:44:47;;;;;;;3.42;1.10;;;20.20;50.30;;;;;;5012617;28;20056;-68
2022/04/12 00:47:14;;;;;;;3.05;1.20;;;20.20;50.20;;;;;;5012475;28;20046;-68
2022/04/12 00:49:39;;;;;;;2.95;1.20;;;20.20;50.30;;;;;;5014775;28;20089;-68
2022/04/12 00:52:06;;;;;;;2.33;1.13;;;20.20;50.20;;;;;;5016812;28;20069;-68
2022/04/12 00:54:33;;;;;;;3.03;1.40;;;20.20;50.20;;;;;;5016622;28;20050;-68
2022/04/12 00:56:58;;;;;;;2.55;1.20;;;20.20;50.20;;;;;;5014534;28;20623;-68
2022/04/12 00:59:24;;;;;;;2.47;1.10;;;20.20;50.20;;;;;;5015656;28;20042;-68
2022/04/12 01:01:50;;;;;;;2.13;1.23;;;20.20;50.20;;;;;;5015067;28;20042;-68
2022/04/12 01:04:15;;;;;;;3.72;1.20;;;20.20;50.20;;;;;;5015473;28;20049;-68
2022/04/12 01:06:41;;;;;;;2.88;1.10;;;20.20;50.10;;;;;;5016189;28;20560;-68
2022/04/12 01:09:07;;;;;;;1.92;1.15;;;20.10;50.80;;;;;;5016271;28;20042;-68
2022/04/12 01:11:33;;;;;;;2.72;1.20;;;20.20;50.10;;;;;;5015811;28;20061;-68
2022/04/12 01:13:59;;;;;;;3.78;1.33;;;20.20;50.10;;;;;;5016107;28;20400;-68
2022/04/12 01:16:25;;;;;;;1.90;1.02;;;20.10;50.10;;;;;;5015886;28;20089;-68
2022/04/12 01:18:50;;;;;;;3.25;1.08;;;20.10;50.00;;;;;;5015198;28;20070;-68
2022/04/12 01:21:16;;;;;;;2.95;1.20;;;20.10;50.10;;;;;;5016167;28;20033;-68
2022/04/12 01:24:01;;;;;;;2.45;1.13;;;20.10;50.00;;;;;;5014782;28;20509;-68
2022/04/12 01:26:27;;;;;;;2.30;1.13;;;20.10;50.00;;;;;;5015077;28;20037;-68
2022/04/12 01:28:52;;;;;;;2.15;1.23;;;20.10;50.00;;;;;;5015423;28;20042;-68
2022/04/12 01:31:18;;;;;;;2.35;1.00;;;20.10;50.00;;;;;;5014805;28;20068;-68
2022/04/12 01:33:43;;;;;;;2.35;1.20;;;20.10;50.00;;;;;;5015662;28;20041;-68
2022/04/12 01:36:09;;;;;;;2.85;1.17;;;20.10;50.10;;;;;;5015882;28;20509;-67
2022/04/12 01:38:34;;;;;;;2.47;1.33;;;20.10;50.00;;;;;;5015031;28;20046;-68
2022/04/12 01:41:00;;;;;;;1.75;1.20;;;20.10;50.00;;;;;;5015566;28;20485;-67
2022/04/12 01:43:25;;;;;;;2.10;1.10;;;20.10;50.60;;;;;;5015713;28;20084;-67
2022/04/12 01:45:51;;;;;;;2.55;1.10;;;20.10;49.90;;;;;;5014519;28;20041;-67
2022/04/12 01:48:16;;;;;;;2.53;1.25;;;20.10;49.90;;;;;;5015823;28;20084;-68
2022/04/12 01:50:41;;;;;;;2.70;1.27;;;20.10;49.90;;;;;;5014833;28;20052;-68
2022/04/12 01:53:07;;;;;;;3.28;1.30;;;20.10;49.90;;;;;;5014879;28;20045;-68
2022/04/12 01:55:32;;;;;;;1.88;1.00;;;20.10;49.90;;;;;;5014111;28;20057;-68
2022/04/12 01:57:58;;;;;;;2.33;1.25;;;20.10;50.00;;;;;;5015187;28;20132;-68
2022/04/12 02:00:23;;;;;;;2.60;1.33;;;20.10;49.90;;;;;;5013637;28;20076;-68
2022/04/12 02:02:49;;;;;;;2.10;1.23;;;20.20;49.90;;;;;;5014850;28;20071;-68
2022/04/12 02:05:14;;;;;;;2.53;1.40;;;20.20;49.80;;;;;;5014777;28;20060;-68
2022/04/12 02:07:43;;;;;;;3.10;1.30;;;20.20;49.90;;;;;;5013875;28;20576;-67
2022/04/12 02:10:09;;;;;;;1.88;1.10;;;20.20;49.90;;;;;;5014982;28;20497;-68
2022/04/12 02:12:35;;;;;;;1.77;0.93;;;20.20;49.90;;;;;;5015031;28;20489;-67
2022/04/12 02:15:00;;;;;;;2.90;1.23;;;20.20;49.90;;;;;;5014009;28;20046;-67
2022/04/12 02:17:26;;;;;;;4.15;0.90;;;20.20;50.00;;;;;;5015542;28;20046;-68
2022/04/12 02:19:51;;;;;;;1.65;0.90;;;20.20;50.00;;;;;;5014493;28;20046;-68
2022/04/12 02:22:17;;;;;;;1.92;1.02;;;20.20;49.90;;;;;;5014295;28;20073;-68
2022/04/12 02:24:42;;;;;;;2.25;0.98;;;20.20;49.90;;;;;;5014493;28;20042;-68
2022/04/12 02:27:08;;;;;;;2.17;1.00;;;20.30;50.00;;;;;;5013959;28;20120;-68
2022/04/12 02:29:33;;;;;;;3.30;1.05;;;20.30;49.90;;;;;;5014768;28;20062;-68
2022/04/12 02:31:59;;;;;;;2.22;0.95;;;20.30;50.00;;;;;;5014798;28;20053;-68
2022/04/12 02:34:24;;;;;;;1.38;1.00;;;20.30;49.90;;;;;;5014173;28;20133;-68
2022/04/12 02:36:50;;;;;;;2.45;0.95;;;20.30;49.90;;;;;;5014267;28;20069;-68
2022/04/12 02:39:15;;;;;;;2.17;1.10;;;20.30;49.80;;;;;;5014611;28;20053;-68
2022/04/12 02:41:41;;;;;;;3.78;0.90;;;20.30;49.80;;;;;;5013706;28;20116;-68
2022/04/12 02:44:06;;;;;;;3.10;1.00;;;20.30;49.80;;;;;;5014688;28;20052;-68
2022/04/12 02:46:32;;;;;;;2.75;1.30;;;20.30;49.80;;;;;;5014692;28;20049;-68
2022/04/12 02:48:57;;;;;;;2.33;1.00;;;20.30;49.80;;;;;;5013588;28;20447;-67
2022/04/12 02:51:23;;;;;;;2.45;0.98;;;20.40;49.80;;;;;;5014430;28;20038;-68
2022/04/12 02:53:48;;;;;;;1.70;1.00;;;20.30;49.80;;;;;;5014114;28;20619;-68
2022/04/12 02:56:14;;;;;;;2.08;1.00;;;20.40;49.80;;;;;;5013732;28;20508;-68
2022/04/12 02:58:39;;;;;;;1.83;0.90;;;20.30;49.80;;;;;;5014468;28;20485;-68
2022/04/12 03:01:05;;;;;;;2.08;1.00;;;20.40;49.80;;;;;;5014399;28;20532;-68
2022/04/12 03:03:30;;;;;;;2.80;1.00;;;20.40;49.80;;;;;;5013616;28;20037;-68
2022/04/12 03:05:56;;;;;;;1.85;1.15;;;20.40;49.80;;;;;;5013859;28;20041;-68
2022/04/12 03:08:22;;;;;;;2.78;1.20;;;20.40;49.80;;;;;;5014287;28;20042;-68
2022/04/12 03:10:48;;;;;;;2.17;1.02;;;20.40;49.80;;;;;;5013196;28;20069;-68
2022/04/12 03:13:13;;;;;;;2.65;1.00;;;20.40;49.80;;;;;;5014086;28;20429;-68
2022/04/12 03:15:39;;;;;;;1.92;0.80;;;20.40;49.80;;;;;;5013818;28;20131;-68
2022/04/12 03:18:04;;;;;;;2.15;1.05;;;20.40;49.80;;;;;;5013345;28;20049;-68
2022/04/12 03:20:31;;;;;;;1.63;0.85;;;20.40;49.80;;;;;;5013914;28;20050;-67
2022/04/12 03:22:57;;;;;;;2.38;1.10;;;20.40;49.80;;;;;;5013591;28;20416;-67
2022/04/12 03:25:22;;;;;;;2.10;0.95;;;20.40;49.80;;;;;;5013262;28;20126;-68
2022/04/12 03:27:48;;;;;;;1.85;0.88;;;20.40;49.70;;;;;;5013591;28;20467;-68
2022/04/12 03:30:13;;;;;;;2.03;1.10;;;20.50;49.80;;;;;;5013599;28;20065;-68
2022/04/12 03:32:39;;;;;;;1.70;0.80;;;20.50;49.80;;;;;;5012649;28;20401;-67
2022/04/12 03:35:05;;;;;;;2.33;1.10;;;20.50;49.80;;;;;;5013500;28;20052;-67
2022/04/12 03:37:30;;;;;;;2.05;0.90;;;20.50;49.80;;;;;;5012912;28;20042;-68
2022/04/12 03:39:56;;;;;;;1.40;0.85;;;20.40;49.70;;;;;;5012992;28;20042;-68
2022/04/12 03:42:22;;;;;;;1.65;0.90;;;20.50;49.70;;;;;;5013233;28;20038;-68
2022/04/12 03:44:47;;;;;;;2.30;0.98;;;20.50;49.70;;;;;;5012579;28;20046;-68
2022/04/12 03:47:13;;;;;;;2.55;1.00;;;20.50;49.70;;;;;;5013613;28;20038;-68
2022/04/12 03:49:38;;;;;;;2.03;0.80;;;20.50;49.70;;;;;;5013494;28;20117;-68
2022/04/12 03:52:04;;;;;;;1.70;0.93;;;20.50;49.70;;;;;;5012764;28;20037;-68
2022/04/12 03:54:30;;;;;;;2.30;0.82;;;20.50;49.70;;;;;;5013460;28;20504;-68
2022/04/12 03:56:55;;;;;;;1.38;0.90;;;20.50;49.60;;;;;;5013018;28;20045;-68
2022/04/12 03:59:21;;;;;;;1.70;0.90;;;20.50;49.60;;;;;;5012744;28;20084;-68
2022/04/12 04:01:47;;;;;;;2.60;1.10;;;20.50;49.60;;;;;;5012620;28;20077;-68
2022/04/12 04:04:13;;;;;;;1.80;0.88;;;20.50;49.60;;;;;;5013103;28;20041;-68
2022/04/12 04:06:38;;;;;;;1.75;0.73;;;20.50;49.50;;;;;;5011398;28;20046;-68
2022/04/12 04:09:04;;;;;;;1.65;0.90;;;20.50;49.50;;;;;;5013029;28;20046;-68
2022/04/12 04:11:29;;;;;;;1.48;0.90;;;20.50;49.50;;;;;;5013025;28;20034;-68
2022/04/12 04:13:55;;;;;;;1.70;0.88;;;20.50;49.50;;;;;;5012013;28;20045;-68
2022/04/12 04:16:21;;;;;;;1.52;0.90;;;20.50;49.50;;;;;;5013267;28;20184;-68
2022/04/12 04:18:46;;;;;;;1.70;0.80;;;20.50;49.50;;;;;;5012790;28;20033;-68
2022/04/12 04:21:12;;;;;;;1.83;1.02;;;20.50;49.50;;;;;;5011981;28;20045;-67
2022/04/12 04:23:37;;;;;;;3.20;1.00;;;20.50;49.40;;;;;;5012679;28;20042;-68
2022/04/12 04:26:03;;;;;;;2.15;1.05;;;20.50;49.40;;;;;;5012260;28;20478;-68
2022/04/12 04:28:30;;;;;;;2.03;1.00;;;20.60;49.50;;;;;;5012220;28;20056;-67
2022/04/12 04:30:56;;;;;;;2.17;0.90;;;20.50;49.50;;;;;;5012235;28;20058;-66
2022/04/12 04:33:21;;;;;;;1.60;0.90;;;20.50;49.50;;;;;;5012676;28;20132;-67
2022/04/12 04:35:47;;;;;;;1.00;0.70;;;20.50;49.40;;;;;;5011731;28;20049;-67
2022/04/12 04:38:13;;;;;;;0.90;0.73;;;20.50;49.40;;;;;;5013068;28;20125;-67
2022/04/12 04:40:39;;;;;;;1.70;0.80;;;20.60;49.50;;;;;;5012527;28;20492;-68
2022/04/12 04:43:05;;;;;;;2.33;0.90;;;20.60;49.40;;;;;;5012224;28;20386;-68
2022/04/12 04:45:30;;;;;;;2.28;1.00;;;20.50;49.40;;;;;;5012820;28;20049;-68
2022/04/12 04:47:57;;;;;;;1.73;0.88;;;20.50;49.30;;;;;;5011600;28;20504;-68
2022/04/12 04:50:24;;;;;;;2.47;0.90;;;20.60;49.30;;;;;;5012744;28;20038;-68
2022/04/12 04:52:50;;;;;;;1.55;0.80;;;20.60;49.30;;;;;;5011886;28;20038;-68
2022/04/12 04:55:16;;;;;;;1.95;0.90;;;20.60;49.40;;;;;;5011932;28;20172;-68
2022/04/12 04:57:42;;;;;;;1.98;1.00;;;20.60;49.30;;;;;;5012558;28;20124;-68
2022/04/12 05:00:15;;;;;;;1.45;0.80;;;20.60;49.30;;;;;;5012873;28;20060;-68
2022/04/12 05:02:48;;;;;;;2.97;1.00;;;20.60;49.30;;;;;;5011672;28;20042;-68
2022/04/12 05:05:14;;;;;;;1.67;0.90;;;20.60;49.30;;;;;;5012831;28;20054;-68
2022/04/12 05:07:40;;;;;;;1.52;1.00;;;20.60;49.30;;;;;;5012265;28;20049;-68
2022/04/12 05:10:06;;;;;;;1.75;0.80;;;20.60;49.40;;;;;;5011863;28;20046;-68
2022/04/12 05:12:32;;;;;;;1.60;0.77;;;20.60;49.30;;;;;;5012556;28;20052;-68
2022/04/12 05:14:57;;;;;;;1.90;0.70;;;20.60;49.40;;;;;;5011906;28;20045;-67
2022/04/12 05:17:26;;;;;;;1.25;0.80;;;20.60;49.30;;;;;;5011903;28;20056;-68
2022/04/12 05:19:52;;;;;;;1.10;0.73;;;20.60;49.30;;;;;;5011862;28;20480;-67
2022/04/12 05:22:18;;;;;;;2.03;0.98;;;20.60;49.30;;;;;;5012443;28;20074;-67
2022/04/12 05:24:44;;;;;;;2.10;0.77;;;20.60;49.20;;;;;;5011628;28;20056;-68
2022/04/12 05:27:10;;;;;;;3.72;1.00;;;20.60;49.30;;;;;;5012529;28;20048;-68
2022/04/12 05:29:36;;;;;;;1.83;0.85;;;20.60;49.20;;;;;;5012312;28;20184;-68
2022/04/12 05:32:02;;;;;;;1.80;0.95;;;20.60;49.20;;;;;;5011481;28;20046;-67
2022/04/12 05:34:27;;;;;;;1.45;0.80;;;20.60;49.20;;;;;;5013112;28;20092;-70
2022/04/12 05:36:53;;;;;;;1.67;0.90;;;20.60;49.10;;;;;;5015552;28;20049;-70
2022/04/12 05:39:18;;;;;;;1.60;0.90;;;20.60;49.10;;;;;;5020099;28;20041;-70
2022/04/12 05:41:44;;;;;;;1.75;0.95;;;20.60;49.10;;;;;;5034554;28;20081;-70
2022/04/12 05:44:09;;;;;;;2.38;0.90;;;20.60;49.10;;;;;;5033612;28;20179;-69
2022/04/12 05:46:35;;;;;;;1.52;0.85;;;20.60;49.10;;;;;;5033481;28;20049;-68
2022/04/12 05:49:00;;;;;;;2.22;0.95;;;20.60;49.30;;;;;;5035058;28;20037;-68
2022/04/12 05:51:26;;;;;;;5.50;1.10;;;20.60;49.20;;;;;;5034108;28;20522;-68
2022/04/12 05:53:51;;;;;;;1.13;0.75;;;20.60;49.30;;;;;;5035128;28;20113;-69
2022/04/12 05:56:17;;;;;;;2.08;0.95;;;20.70;49.40;;;;;;5035141;28;20100;-69
2022/04/12 05:58:43;;;;;;;2.65;0.90;;;20.60;49.50;;;;;;5034114;28;20171;-67
2022/04/12 06:01:08;;;;;;;3.78;0.98;;;20.70;49.60;;;;;;5035102;28;20050;-71
2022/04/12 06:03:34;;;;;;;3.08;0.98;;;20.70;49.80;;;;;;5035364;28;20397;-70
2022/04/12 06:05:59;;;;;;;1.92;0.80;;;20.70;50.00;;;;;;5033916;28;20084;-71
2022/04/12 06:08:25;;;;;;;1.95;0.80;;;20.70;50.10;;;;;;5035254;28;20067;-71
2022/04/12 06:10:50;;;;;;;4.22;1.25;;;20.70;50.20;;;;;;5034456;28;20056;-71
2022/04/12 06:13:16;;;;;;;3.67;1.02;;;20.70;50.40;;;;;;5034268;28;20513;-75
2022/04/12 06:15:41;;;;;;;2.88;1.10;;;20.70;50.50;;;;;;5034861;28;20396;-69
2022/04/12 06:18:07;;;;;;;4.50;1.08;;;20.80;50.70;;;;;;5034705;28;20041;-70
2022/04/12 06:20:33;;;;;;;1.88;0.80;;;20.80;50.70;;;;;;5031747;28;20472;-69
2022/04/12 06:22:58;;;;;;;3.38;1.10;;;20.80;50.80;;;;;;5013594;28;20046;-72
2022/04/12 06:25:24;;;;;;;4.00;0.93;;;20.80;50.80;;;;;;5023877;28;20120;-72
2022/04/12 06:27:50;;;;;;;1.80;0.88;;;20.90;51.00;;;;;;5033504;28;20045;-72
2022/04/12 06:30:26;;;;;;;1.50;0.80;;;20.90;51.00;;;;;;5034134;28;20049;-71
2022/04/12 06:32:52;;;;;;;2.65;0.93;;;20.90;51.10;;;;;;5033975;28;20065;-71
2022/04/12 06:35:18;;;;;;;3.05;0.90;;;20.90;51.10;;;;;;5033548;28;20060;-71
2022/04/12 06:37:45;;;;;;;2.58;1.00;;;20.90;51.10;;;;;;5033996;28;20137;-67
2022/04/12 06:40:11;;;;;;;2.13;0.90;;;20.90;51.20;;;;;;5034539;28;20048;-68
2022/04/12 06:42:37;;;;;;;2.80;0.77;;;21.00;51.30;;;;;;5033782;28;20046;-68
2022/04/12 06:45:03;;;;;;;1.63;0.70;;;21.00;51.30;;;;;;5033986;28;20038;-69
2022/04/12 06:47:29;;;;;;;1.52;0.70;;;21.00;51.30;;;;;;5032997;28;20136;-69
2022/04/12 06:49:54;;;;;;;3.25;1.00;;;21.00;51.20;;;;;;5033948;28;20125;-73
2022/04/12 06:52:21;;;;;;;1.77;0.80;;;21.00;51.20;;;;;;5034205;28;20056;-73
2022/04/12 06:54:47;;;;;;;2.33;1.13;;;21.00;51.10;;;;;;5032948;28;20094;-72
2022/04/12 06:57:13;;;;;;;1.67;0.80;;;21.10;51.00;;;;;;5034404;28;20049;-68
2022/04/12 06:59:38;;;;;;;5.10;1.05;;;21.10;50.90;;;;;;5034191;28;20102;-72
2022/04/12 07:02:04;;;;;;;2.10;0.82;;;21.10;51.00;;;;;;5033018;28;20037;-70
2022/04/12 07:04:30;;;;;;;2.20;0.77;;;21.10;51.00;;;;;;5034196;28;20064;-70
2022/04/12 07:06:56;;;;;;;2.58;0.90;;;21.10;51.10;;;;;;5033696;28;20037;-71
2022/04/12 07:09:27;;;;;;;3.55;0.82;;;21.10;51.10;;;;;;5033250;28;20072;-71
2022/04/12 07:11:53;;;;;;;2.40;0.90;;;21.10;51.20;;;;;;5033826;28;20049;-71
2022/04/12 07:14:18;;;;;;;1.17;0.90;;;21.10;51.20;;;;;;5033677;28;20049;-68
2022/04/12 07:16:44;;;;;;;2.05;0.90;;;21.10;51.20;;;;;;5032617;28;20037;-68
2022/04/12 07:19:09;;;;;;;3.20;0.85;;;21.10;51.20;;;;;;5024022;28;20072;-70
2022/04/12 07:21:35;;;;;;;4.00;0.88;;;21.20;51.20;;;;;;5027676;28;20044;-70
2022/04/12 07:24:03;;;;;;;4.07;1.00;;;21.20;51.30;;;;;;5032574;28;20037;-69
2022/04/12 07:26:28;;;;;;;1.38;0.70;;;21.20;51.30;;;;;;5033731;28;20048;-69
2022/04/12 07:28:54;;;;;;;2.53;0.85;;;21.20;51.40;;;;;;5033341;28;20045;-69
2022/04/12 07:31:19;;;;;;;2.47;1.00;;;21.20;51.30;;;;;;5032428;28;20145;-70
2022/04/12 07:33:45;;;;;;;3.30;0.98;;;21.20;51.30;;;;;;5033267;28;20041;-72
2022/04/12 07:36:11;;;;;;;2.30;0.90;;;21.20;51.20;;;;;;5033299;28;20128;-69
2022/04/12 07:38:36;;;;;;;3.10;1.08;;;21.20;51.20;;;;;;5023549;28;20042;-67
2022/04/12 07:41:02;;;;;;;1.83;0.85;;;21.20;51.20;;;;;;5014286;28;20162;-76
2022/04/12 07:43:27;;;;;;;1.48;0.73;;;21.20;51.10;;;;;;5012389;28;20466;-72
2022/04/12 07:45:53;;;;;;;1.65;0.80;;;21.30;51.10;;;;;;5012008;28;20482;-73
2022/04/12 07:48:18;;;;;;;2.65;1.08;;;21.30;51.20;;;;;;5013516;28;20132;-73
2022/04/12 07:50:44;;;;;;;1.50;0.90;;;21.30;51.90;;;;;;5012407;28;20050;-73
2022/04/12 07:53:09;;;;;;;3.22;0.98;;;21.30;51.20;;;;;;5013440;28;20125;-71
2022/04/12 07:55:35;;;;;;;3.45;0.93;;;21.30;51.20;;;;;;5013367;28;20050;-71
2022/04/12 07:58:00;;;;;;;2.83;0.85;;;21.30;51.30;;;;;;5011386;28;20044;-70
2022/04/12 08:00:26;;;;;;;1.67;0.90;;;21.30;51.10;;;;;;5013049;28;20038;-71
2022/04/12 08:02:51;;;;;;;2.70;0.80;;;21.40;51.30;;;;;;5012992;28;20045;-72
2022/04/12 08:05:17;;;;;;;1.80;0.80;;;21.40;51.20;;;;;;5012535;28;20069;-73
2022/04/12 08:07:48;;;;;;;2.80;1.27;;;21.40;51.20;;;;;;5012737;28;20081;-74
2022/04/12 08:10:17;;;;;;;2.88;1.35;;;21.40;51.80;;;;;;5013384;28;20129;-71
2022/04/12 08:12:43;;;;;;;4.28;1.70;;;21.40;51.20;;;;;;5012095;28;20042;-75
2022/04/12 08:15:10;;;;;;;3.28;1.60;;;21.50;51.30;;;;;;5012809;28;20405;-78
2022/04/12 08:17:35;;;;;;;5.03;1.75;;;21.50;51.40;;;;;;5017967;28;20496;-69
2022/04/12 08:20:01;;;;;;;6.28;2.00;;;21.50;51.40;;;;;;5028402;28;20048;-73
2022/04/12 08:22:26;;;;;;;6.18;2.30;;;21.50;51.40;;;;;;5022246;28;20041;-72
2022/04/12 08:24:52;;;;;;;5.30;1.80;;;21.60;51.50;;;;;;5022801;28;20092;-72
2022/04/12 08:27:18;;;;;;;4.10;2.15;;;21.60;51.60;;;;;;5020355;28;20444;-73
2022/04/12 08:29:45;;;;;;;6.15;2.50;;;21.60;51.50;;;;;;5021999;28;20381;-74
2022/04/12 08:32:10;;;;;;;4.47;2.03;;;21.60;51.70;;;;;;5031429;28;20050;-74
2022/04/12 08:34:36;;;;;;;6.10;2.47;;;21.60;51.70;;;;;;5028665;28;20397;-75
2022/04/12 08:37:02;;;;;;;5.00;2.40;;;21.60;51.70;;;;;;5031507;28;20140;-70
2022/04/12 08:39:28;;;;;;;6.68;2.33;;;21.60;51.70;;;;;;5032494;28;20045;-71
2022/04/12 08:41:53;;;;;;;6.28;1.95;;;21.70;51.70;;;;;;5031162;28;20041;-71
2022/04/12 08:44:19;;;;;;;5.82;2.20;;;21.70;52.20;;;;;;5030538;28;20049;-71
2022/04/12 08:46:47;;;;;;;9.00;2.50;;;21.70;51.40;;;;;;5047474;28;20107;-71
2022/04/12 08:49:13;;;;;;;5.50;1.73;;;21.70;51.40;;;;;;5031658;28;20038;-71
2022/04/12 08:51:39;;;;;;;5.72;1.90;;;21.70;51.40;;;;;;5030534;28;20049;-70
2022/04/12 08:54:05;;;;;;;7.28;1.90;;;21.70;51.30;;;;;;5031125;28;20060;-68
2022/04/12 08:56:30;;;;;;;6.20;1.92;;;21.70;51.30;;;;;;5030695;28;20547;-68
2022/04/12 08:58:56;;;;;;;5.13;2.03;;;21.70;51.30;;;;;;5047276;28;20069;-69
2022/04/12 09:01:22;;;;;;;5.28;1.75;;;21.70;51.40;;;;;;5031735;28;20394;-69
2022/04/12 09:03:47;;;;;;;6.38;2.05;;;21.70;51.30;;;;;;5031906;28;20037;-69
2022/04/12 09:06:13;;;;;;;7.28;2.25;;;21.70;51.30;;;;;;5032277;28;20037;-69
2022/04/12 09:08:39;;;;;;;5.82;1.90;;;21.70;51.20;;;;;;5021780;28;20041;-70
2022/04/12 09:11:07;;;;;;;6.68;2.20;;;21.70;51.30;;;;;;5024210;28;20038;-69
2022/04/12 09:13:32;;;;;;;4.90;2.08;;;21.70;51.40;;;;;;5024179;28;20542;-69
2022/04/12 09:15:58;;;;;;;5.60;2.05;;;21.70;51.40;;;;;;5024051;28;20140;-70
2022/04/12 09:18:40;;;;;;;4.85;1.92;;;21.70;51.50;;;;;;5024575;28;20044;-70
2022/04/12 09:21:16;;;;;;;4.65;2.17;;;21.70;51.60;;;;;;5023237;28;20030;-69
2022/04/12 09:23:46;;;;;;;5.68;1.73;;;21.70;51.60;;;;;;5022949;28;20053;-70
2022/04/12 09:26:25;;;;;;;6.32;1.75;;;21.80;51.60;;;;;;5025445;28;20493;-69
2022/04/12 09:28:52;;;;;;;6.53;2.00;;;21.70;51.50;;;;;;5024802;28;20038;-69
2022/04/12 09:31:18;;;;;;;6.28;1.85;;;21.70;51.60;;;;;;5026792;28;20050;-67
2022/04/12 09:33:44;;;;;;;6.03;1.60;;;21.80;51.70;;;;;;5035369;28;20047;-75
2022/04/12 09:36:10;;;;;;;6.60;2.10;;;21.70;51.60;;;;;;5034794;28;20049;-69
2022/04/12 09:38:40;;;;;;;4.90;1.80;;;21.80;51.50;;;;;;5035675;28;20053;-64
2022/04/12 09:41:19;;;;;;;4.57;1.77;;;21.80;51.40;;;;;;5035636;28;20045;-64
2022/04/12 09:44:12;;;;;;;4.28;1.80;;;21.70;51.30;;;;;;5034252;28;20049;-62
2022/04/12 09:46:39;;;;;;;4.60;1.63;;;21.70;51.10;;;;;;5036765;28;20077;-60
2022/04/12 09:49:05;;;;;;;4.72;1.40;;;21.70;51.20;;;;;;5034603;28;20057;-60
2022/04/12 09:51:32;;;;;;;3.83;1.85;;;21.70;51.20;;;;;;5028037;28;20591;-59
2022/04/12 09:53:58;;;;;;;6.93;1.80;;;21.70;51.70;;;;;;5030722;28;20422;-60
2022/04/12 09:56:29;;;;;;;8.98;1.95;;;21.70;52.10;;;;;;5032395;28;20725;-60
2022/04/12 09:59:00;;;;;;;4.90;1.85;;;21.70;52.40;;;;;;5032902;28;20071;-68
2022/04/12 10:01:25;;;;;;;4.10;1.95;;;21.70;52.50;;;;;;5033706;28;20053;-69
2022/04/12 10:03:56;;;;;;;5.05;1.50;;;21.80;52.90;;;;;;5033912;28;20388;-69
2022/04/12 10:06:26;;;;;;;5.00;1.80;;;21.80;53.30;;;;;;5033259;28;20091;-70
2022/04/12 10:08:53;;;;;;;5.45;1.60;;;21.80;53.50;;;;;;5034129;28;20122;-70
2022/04/12 10:11:19;;;;;;;4.13;1.70;;;21.80;53.50;;;;;;5033603;28;20152;-70
2022/04/12 10:13:45;;;;;;;5.05;1.33;;;21.80;53.70;;;;;;5034100;28;20120;-70
2022/04/12 10:16:13;;;;;;;4.10;1.42;;;21.80;53.80;;;;;;5031314;28;20102;-66
2022/04/12 10:18:39;;;;;;;;;;;21.80;53.90;;;;;;5047699;28;20139;-66
2022/04/12 10:21:04;;;;;;;3.92;1.48;;;21.80;53.70;;;;;;5048719;28;20304;-63
2022/04/12 10:23:30;;;;;;;3.22;1.40;;;21.80;53.50;;;;;;5034548;28;20045;-64
2022/04/12 10:25:56;;;;;;;6.00;1.70;;;21.80;53.30;;;;;;5033575;28;20128;-63
2022/04/12 10:28:22;;;;;;;3.28;1.27;;;21.90;53.30;;;;;;5033461;28;20431;-64
2022/04/12 10:30:48;;;;;;;10.23;1.83;;;21.80;53.30;;;;;;5033084;28;20045;-63
2022/04/12 10:33:24;;;;;;;4.18;1.52;;;21.90;53.40;;;;;;5032891;28;20044;-64
2022/04/12 10:35:54;;;;;;;5.70;1.58;;;21.90;53.50;;;;;;5033858;28;20106;-63
2022/04/12 10:38:20;;;;;;;5.53;1.58;;;21.90;53.50;;;;;;5034310;28;20049;-64
2022/04/12 10:40:51;;;;;;;6.28;2.00;;;21.80;53.50;;;;;;5033235;28;20049;-64
2022/04/12 10:43:33;;;;;;;4.57;1.60;;;21.90;53.30;;;;;;5032775;28;20045;-63
2022/04/12 10:46:01;;;;;;;7.97;1.77;;;21.80;53.00;;;;;;5023581;28;20053;-63
2022/04/12 10:48:30;;;;;;;8.02;1.88;;;21.80;53.10;;;;;;5024212;28;20045;-66
2022/04/12 10:50:56;;;;;;;9.80;2.08;;;21.80;53.20;;;;;;5022872;28;20048;-65
2022/04/12 10:53:39;;;;;;;5.35;1.58;;;21.80;53.40;;;;;;5020806;28;20041;-66
2022/04/12 10:56:15;;;;;;;3.63;1.52;;;21.80;53.50;;;;;;5014221;28;20108;-65
2022/04/12 10:58:42;;;;;;;5.68;1.92;;;21.80;53.40;;;;;;5013715;28;20092;-64
2022/04/12 11:01:12;;;;;;;5.13;1.30;;;21.80;53.40;;;;;;5029030;28;20424;-61
2022/04/12 11:03:41;;;;;;;4.55;1.58;;;21.80;53.40;;;;;;5034514;28;20049;-66
2022/04/12 11:06:13;;;;;;;3.95;1.42;;;21.80;53.40;;;;;;5033213;28;20079;-66
2022/04/12 11:08:39;;;;;;;3.00;1.50;;;21.80;53.10;;;;;;5032916;28;20136;-66
2022/04/12 11:11:06;;;;;;;3.88;1.73;;;21.80;52.90;;;;;;5033987;28;20052;-66
2022/04/12 11:13:32;;;;;;;9.85;1.55;;;21.80;52.90;;;;;;5033657;28;20481;-66
2022/04/12 11:16:10;;;;;;;3.35;1.15;;;21.80;52.90;;;;;;5032845;28;20169;-66
2022/04/12 11:18:55;;;;;;;3.78;1.30;;;21.80;52.80;;;;;;5033878;28;20049;-66
2022/04/12 11:21:25;;;;;;;5.68;1.83;;;21.80;52.70;;;;;;5019868;28;20041;-66
2022/04/12 11:24:00;;;;;;;5.13;1.40;;;21.80;52.80;;;;;;5012954;28;20045;-66
2022/04/12 11:26:46;;;;;;;4.40;1.58;;;21.80;52.80;;;;;;5013764;28;20041;-66
2022/04/12 11:29:19;;;;;;;3.65;1.67;;;21.80;52.70;;;;;;5013518;28;20078;-69
2022/04/12 11:31:53;;;;;;;4.50;1.67;;;21.80;52.70;;;;;;5013631;28;20056;-69
2022/04/12 11:34:19;;;;;;;4.28;1.10;;;21.80;52.60;;;;;;5013743;28;20045;-66
2022/04/12 11:36:54;;;;;;;7.45;1.92;;;21.80;52.60;;;;;;5012639;28;20049;-66
2022/04/12 11:39:20;;;;;;;2.95;1.23;;;21.90;52.60;;;;;;5013377;28;20441;-69
2022/04/12 11:41:46;;;;;;;6.35;1.63;;;21.80;52.60;;;;;;5013258;28;20112;-69
2022/04/12 11:44:11;;;;;;;4.60;1.40;;;21.90;52.60;;;;;;5012860;28;20474;-69
2022/04/12 11:46:37;;;;;;;2.60;1.17;;;21.90;52.70;;;;;;5013581;28;20045;-69
2022/04/12 11:49:04;;;;;;;2.72;1.20;;;21.90;52.60;;;;;;5012969;28;20060;-66
2022/04/12 11:51:29;;;;;;;3.75;1.27;;;21.90;52.60;;;;;;5012690;28;20069;-66
2022/04/12 11:53:55;;;;;;;2.97;1.23;;;21.80;52.50;;;;;;5012924;28;20467;-66
2022/04/12 11:56:20;;;;;;;4.85;1.45;;;21.90;52.50;;;;;;5013414;28;20061;-66
2022/04/12 11:58:46;;;;;;;4.32;1.30;;;21.90;52.50;;;;;;5012355;28;20048;-66
2022/04/12 12:01:13;;;;;;;2.53;0.90;;;21.80;52.40;;;;;;5013101;28;20046;-66
2022/04/12 12:03:40;;;;;;;3.63;1.38;;;21.90;52.40;;;;;;5013015;28;20038;-66
2022/04/12 12:06:07;;;;;;;3.88;1.20;;;21.90;52.30;;;;;;5012306;28;20486;-66
2022/04/12 12:08:32;;;;;;;3.80;1.63;;;21.90;52.40;;;;;;5012923;28;20056;-66
2022/04/12 12:11:08;;;;;;;3.28;1.15;;;21.90;52.40;;;;;;4993992;28;20408;-66
2022/04/12 12:13:33;;;;;;;3.42;0.93;;;21.90;52.40;;;;;;5014031;28;20461;-69
2022/04/12 12:15:59;;;;;;;3.33;1.00;;;21.90;52.30;;;;;;5021396;28;20477;-65
2022/04/12 12:18:24;;;;;;;4.50;1.20;;;21.90;52.30;;;;;;5020479;28;20038;-66
2022/04/12 12:20:50;;;;;;;8.68;2.50;;;21.90;52.20;;;;;;5022363;28;20041;-66
2022/04/12 12:23:16;;;;;;;11.93;3.10;;;21.90;52.10;;;;;;5022875;28;20513;-67
2022/04/12 12:25:51;;;;;;;10.68;2.40;;;21.90;52.00;;;;;;5020343;28;20133;-66
2022/04/12 12:28:21;;;;;;;9.10;2.95;;;21.90;52.10;;;;;;5021882;28;20114;-68
2022/04/12 12:30:56;;;;;;;8.07;2.42;;;22.00;52.20;;;;;;5021008;28;20061;-67
2022/04/12 12:33:23;;;;;;;8.88;2.22;;;22.00;52.20;;;;;;5020553;28;20065;-68
2022/04/12 12:35:49;;;;;;;11.52;2.45;;;22.00;52.20;;;;;;5022295;28;20094;-69
2022/04/12 12:38:15;;;;;;;8.63;2.70;;;22.00;52.20;;;;;;5020704;28;20116;-69
2022/04/12 12:40:42;;;;;;;10.65;2.17;;;22.00;52.20;;;;;;5021835;28;20057;-69
2022/04/12 12:43:13;;;;;;;7.70;2.58;;;22.00;52.20;;;;;;5021319;28;20037;-70
2022/04/12 12:45:46;;;;;;;10.80;2.33;;;22.00;52.20;;;;;;5026878;28;20041;-66
2022/04/12 12:48:13;;;;;;;8.00;2.15;;;22.00;52.20;;;;;;5035317;28;20139;-63